Time;durP1;ratioP1;P1;durP2;ratioP2;P2;SDS_P1;SDS_P2;PMS_P1;PMS_P2;Temp;Humidity;BMP_temperature;BMP_pressure;BME280_temperature;BME280_humidity;BME280_pressure;Samples;Min_cycle;Max_cycle;Signal;HPM_P1;HPM_P2
2021/08/25 00:01:23;;;;;;;30.20;15.80;;;;;;;;;;5048068;28;20039;-59
2021/08/25 00:03:48;;;;;;;28.13;15.48;;;;;;;;;;5048338;28;20035;-59
2021/08/25 00:06:13;;;;;;;30.98;16.17;;;;;;;;;;5048794;28;20026;-59
2021/08/25 00:08:39;;;;;;;27.17;14.55;;;;;;;;;;5047029;28;20440;-59
2021/08/25 00:11:05;;;;;;;27.45;15.02;;;;;;;;;;5047582;28;20049;-59
2021/08/25 00:13:31;;;;;;;25.02;15.48;;;;;;;;;;5045773;28;20032;-59
2021/08/25 00:15:56;;;;;;;28.58;15.30;;;;;;;;;;5049819;28;20052;-59
2021/08/25 00:18:21;;;;;;;27.60;15.25;;;;;;;;;;5046653;28;20471;-59
2021/08/25 00:20:47;;;;;;;26.05;15.40;;;;;;;;;;5047388;28;20096;-59
2021/08/25 00:23:12;;;;;;;32.25;15.85;;;;;;;;;;5047164;28;20448;-59
2021/08/25 00:25:38;;;;;;;26.98;16.10;;;;;;;;;;5047139;28;20535;-59
2021/08/25 00:28:04;;;;;;;23.08;12.65;;;;;;;;;;5049854;28;20102;-59
2021/08/25 00:30:29;;;;;;;27.98;14.43;;;;;;;;;;5048405;28;20502;-59
2021/08/25 00:32:55;;;;;;;26.63;14.27;;;;;;;;;;5049180;28;20056;-59
2021/08/25 00:35:20;;;;;;;25.15;14.50;;;;;;;;;;5054872;28;20360;-59
2021/08/25 00:37:46;;;;;;;24.75;15.18;;;;;;;;;;5047833;28;20051;-59
2021/08/25 00:40:12;;;;;;;30.58;15.77;;;;;;;;;;5047811;28;20025;-59
2021/08/25 00:42:38;;;;;;;29.75;16.48;;;;;;;;;;5047193;28;20499;-59
2021/08/25 00:45:08;;;;;;;30.98;16.00;;;;;;;;;;5048204;28;20035;-59
2021/08/25 00:47:43;;;;;;;28.33;15.65;;;;;;;;;;5046749;28;20495;-59
2021/08/25 00:50:10;;;;;;;31.92;15.52;;;;;;;;;;5047274;28;20415;-59
2021/08/25 00:52:38;;;;;;;30.27;15.75;;;;;;;;;;5047499;28;20082;-59
2021/08/25 00:55:04;;;;;;;28.83;14.98;;;;;;;;;;5047021;28;20112;-59
2021/08/25 00:57:30;;;;;;;26.38;15.15;;;;;;;;;;5047724;28;20070;-59
2021/08/25 00:59:55;;;;;;;27.48;15.35;;;;;;;;;;5046640;28;20240;-59
2021/08/25 01:02:28;;;;;;;32.33;16.08;;;;;;;;;;5046344;28;20016;-59
2021/08/25 01:04:58;;;;;;;30.42;15.60;;;;;;;;;;5046356;28;20020;-59
2021/08/25 01:07:24;;;;;;;28.95;16.42;;;;;;;;;;5045384;28;20044;-59
2021/08/25 01:09:53;;;;;;;29.75;15.48;;;;;;;;;;5046738;28;20031;-59
2021/08/25 01:12:23;;;;;;;30.27;15.95;;;;;;;;;;5045743;28;20068;-60
2021/08/25 01:14:49;;;;;;;29.88;16.10;;;;;;;;;;5046265;28;20438;-59
2021/08/25 01:17:20;;;;;;;28.45;15.00;;;;;;;;;;5044126;28;20085;-59
2021/08/25 01:19:55;;;;;;;29.45;15.70;;;;;;;;;;5046646;28;20016;-59
2021/08/25 01:22:21;;;;;;;27.65;14.88;;;;;;;;;;5046540;28;20057;-60
2021/08/25 01:24:48;;;;;;;27.30;15.05;;;;;;;;;;5047142;28;20061;-59
2021/08/25 01:27:18;;;;;;;27.88;15.10;;;;;;;;;;5046569;28;20076;-59
2021/08/25 01:29:43;;;;;;;27.80;14.50;;;;;;;;;;5045937;28;20059;-59
2021/08/25 01:32:10;;;;;;;26.83;14.75;;;;;;;;;;5047129;28;20028;-60
2021/08/25 01:34:56;;;;;;;26.73;15.30;;;;;;;;;;5051392;28;20545;-59
2021/08/25 01:37:22;;;;;;;23.77;14.43;;;;;;;;;;5046919;28;20104;-59
2021/08/25 01:39:49;;;;;;;25.15;14.23;;;;;;;;;;5047996;28;20017;-59
2021/08/25 01:42:15;;;;;;;29.45;15.30;;;;;;;;;;5047736;28;20040;-59
2021/08/25 01:44:40;;;;;;;29.42;14.95;;;;;;;;;;5049549;28;20056;-59
2021/08/25 01:47:06;;;;;;;26.90;15.07;;;;;;;;;;5060929;28;20044;-58
2021/08/25 01:49:31;;;;;;;28.05;15.43;;;;;;;;;;5048303;28;20029;-58
2021/08/25 01:51:58;;;;;;;27.90;15.32;;;;;;;;;;5049923;28;20029;-58
2021/08/25 01:54:24;;;;;;;29.92;16.27;;;;;;;;;;5045925;28;20036;-58
2021/08/25 01:56:50;;;;;;;30.77;15.68;;;;;;;;;;5049940;28;20036;-58
2021/08/25 01:59:16;;;;;;;28.30;14.85;;;;;;;;;;5048639;28;20028;-58
2021/08/25 02:01:41;;;;;;;26.90;14.65;;;;;;;;;;5045692;28;20086;-58
2021/08/25 02:04:06;;;;;;;25.15;13.93;;;;;;;;;;5061017;28;20495;-58
2021/08/25 02:06:32;;;;;;;26.33;14.18;;;;;;;;;;5059773;28;20064;-58
2021/08/25 02:08:57;;;;;;;24.67;14.38;;;;;;;;;;5061661;28;20108;-58
2021/08/25 02:11:23;;;;;;;28.15;15.23;;;;;;;;;;5050004;28;20511;-58
2021/08/25 02:13:49;;;;;;;27.52;14.75;;;;;;;;;;5051308;28;20116;-58
2021/08/25 02:16:14;;;;;;;28.60;14.43;;;;;;;;;;5046630;28;20129;-58
2021/08/25 02:18:40;;;;;;;28.45;15.32;;;;;;;;;;5045362;28;20971;-58
2021/08/25 02:21:05;;;;;;;28.50;14.55;;;;;;;;;;5044119;28;20021;-58
2021/08/25 02:23:31;;;;;;;31.70;16.88;;;;;;;;;;5046554;28;20077;-58
2021/08/25 02:25:56;;;;;;;29.95;15.80;;;;;;;;;;5061219;28;20028;-58
2021/08/25 02:28:21;;;;;;;26.00;14.90;;;;;;;;;;5047698;28;20480;-58
2021/08/25 02:30:47;;;;;;;30.52;15.52;;;;;;;;;;5051416;28;20044;-58
2021/08/25 02:33:12;;;;;;;26.15;14.98;;;;;;;;;;5055101;28;20391;-58
2021/08/25 02:35:38;;;;;;;25.95;14.65;;;;;;;;;;5049893;28;20037;-58
2021/08/25 02:38:03;;;;;;;29.13;16.08;;;;;;;;;;5049782;28;20078;-58
2021/08/25 02:40:31;;;;;;;27.40;14.73;;;;;;;;;;5066836;28;20288;-58
2021/08/25 02:42:56;;;;;;;29.83;15.35;;;;;;;;;;5049645;28;20394;-59
2021/08/25 02:45:22;;;;;;;32.15;15.93;;;;;;;;;;5052120;28;20040;-58
2021/08/25 02:47:47;;;;;;;29.17;16.48;;;;;;;;;;5047469;28;20091;-58
2021/08/25 02:50:12;;;;;;;30.67;15.57;;;;;;;;;;5052829;28;20016;-58
2021/08/25 02:52:38;;;;;;;30.70;15.85;;;;;;;;;;5049929;28;20033;-58
2021/08/25 02:55:04;;;;;;;32.30;14.68;;;;;;;;;;5051764;28;20124;-59
2021/08/25 02:57:29;;;;;;;30.88;16.33;;;;;;;;;;5049723;28;20032;-58
2021/08/25 02:59:54;;;;;;;31.65;16.35;;;;;;;;;;5048030;28;20025;-58
2021/08/25 03:02:20;;;;;;;28.38;15.30;;;;;;;;;;5049686;28;20430;-58
2021/08/25 03:04:45;;;;;;;29.88;15.35;;;;;;;;;;5050461;28;20037;-58
2021/08/25 03:07:11;;;;;;;30.20;15.15;;;;;;;;;;5064690;28;20028;-58
2021/08/25 03:09:36;;;;;;;29.27;15.50;;;;;;;;;;5049021;28;20482;-58
2021/08/25 03:12:02;;;;;;;30.20;15.32;;;;;;;;;;5051224;28;20021;-59
2021/08/25 03:14:27;;;;;;;25.55;14.13;;;;;;;;;;5048616;28;20051;-58
2021/08/25 03:16:53;;;;;;;29.10;15.55;;;;;;;;;;5052930;28;20467;-58
2021/08/25 03:19:18;;;;;;;29.88;15.32;;;;;;;;;;5051766;28;20021;-59
2021/08/25 03:21:44;;;;;;;30.33;15.50;;;;;;;;;;5047731;28;20135;-59
2021/08/25 03:24:09;;;;;;;27.58;14.50;;;;;;;;;;5050105;28;20033;-59
2021/08/25 03:26:35;;;;;;;29.58;15.77;;;;;;;;;;5048664;28;20040;-59
2021/08/25 03:29:00;;;;;;;31.92;16.45;;;;;;;;;;5051165;28;20024;-59
2021/08/25 03:31:26;;;;;;;28.55;15.35;;;;;;;;;;5050103;28;20041;-59
2021/08/25 03:33:51;;;;;;;33.20;15.35;;;;;;;;;;5064624;28;20400;-59
2021/08/25 03:36:17;;;;;;;33.10;17.13;;;;;;;;;;5045454;28;20021;-59
2021/08/25 03:38:42;;;;;;;27.35;15.00;;;;;;;;;;5050660;28;20155;-59
2021/08/25 03:41:08;;;;;;;31.70;15.13;;;;;;;;;;5051353;28;20090;-59
2021/08/25 03:43:33;;;;;;;31.75;14.98;;;;;;;;;;5048425;28;20028;-59
2021/08/25 03:45:59;;;;;;;27.17;13.98;;;;;;;;;;5048210;28;20479;-59
2021/08/25 03:48:24;;;;;;;30.83;15.55;;;;;;;;;;5047781;28;20032;-58
2021/08/25 03:50:49;;;;;;;30.45;16.67;;;;;;;;;;5048871;28;20040;-58
2021/08/25 03:53:15;;;;;;;31.90;16.35;;;;;;;;;;5052322;28;20020;-59
2021/08/25 03:55:40;;;;;;;34.33;16.95;;;;;;;;;;5051706;28;20395;-59
2021/08/25 03:58:06;;;;;;;30.63;16.23;;;;;;;;;;5046653;28;20055;-59
2021/08/25 04:00:31;;;;;;;31.08;16.77;;;;;;;;;;5051018;28;20067;-59
2021/08/25 04:02:56;;;;;;;30.58;16.25;;;;;;;;;;5048527;28;20125;-59
2021/08/25 04:05:22;;;;;;;28.45;15.00;;;;;;;;;;5046851;28;20136;-59
2021/08/25 04:07:47;;;;;;;28.52;14.55;;;;;;;;;;5047539;28;20028;-59
2021/08/25 04:10:13;;;;;;;28.75;15.60;;;;;;;;;;5045551;28;20052;-59
2021/08/25 04:12:39;;;;;;;29.85;15.05;;;;;;;;;;5047734;28;20028;-59
2021/08/25 04:15:06;;;;;;;34.38;15.48;;;;;;;;;;5047547;28;20021;-59
2021/08/25 04:17:31;;;;;;;24.70;13.95;;;;;;;;;;5047775;28;20841;-59
2021/08/25 04:19:56;;;;;;;29.02;14.70;;;;;;;;;;5049749;28;20017;-59
2021/08/25 04:22:22;;;;;;;29.05;15.57;;;;;;;;;;5049594;28;20075;-59
2021/08/25 04:24:47;;;;;;;27.88;13.73;;;;;;;;;;5051183;28;20025;-59
2021/08/25 04:27:13;;;;;;;31.88;15.10;;;;;;;;;;5048782;28;20380;-59
2021/08/25 04:29:38;;;;;;;29.13;13.63;;;;;;;;;;5049044;28;20036;-59
2021/08/25 04:32:05;;;;;;;26.63;13.18;;;;;;;;;;5046385;28;20128;-59
2021/08/25 04:34:30;;;;;;;29.77;14.20;;;;;;;;;;5051205;28;20032;-59
2021/08/25 04:36:56;;;;;;;29.88;14.65;;;;;;;;;;5050309;28;20025;-59
2021/08/25 04:39:21;;;;;;;26.90;14.55;;;;;;;;;;5048019;28;20025;-59
2021/08/25 04:41:46;;;;;;;30.33;14.50;;;;;;;;;;5047672;28;20029;-59
2021/08/25 04:44:12;;;;;;;29.40;14.38;;;;;;;;;;5050919;28;21618;-59
2021/08/25 04:46:37;;;;;;;29.38;14.60;;;;;;;;;;5049511;28;20020;-59
2021/08/25 04:49:03;;;;;;;24.55;13.70;;;;;;;;;;5045802;28;20056;-59
2021/08/25 04:51:28;;;;;;;27.20;14.00;;;;;;;;;;5046998;28;20542;-59
2021/08/25 04:53:54;;;;;;;27.50;14.93;;;;;;;;;;5047448;28;20043;-59
2021/08/25 04:56:19;;;;;;;28.35;14.52;;;;;;;;;;5051773;28;20108;-59
2021/08/25 04:58:44;;;;;;;29.45;14.07;;;;;;;;;;5048832;28;20167;-59
2021/08/25 05:01:10;;;;;;;27.75;14.20;;;;;;;;;;5047951;28;20114;-59
2021/08/25 05:03:36;;;;;;;26.55;13.80;;;;;;;;;;5046235;28;20029;-58
2021/08/25 05:06:11;;;;;;;27.08;14.15;;;;;;;;;;5047051;28;20155;-59
2021/08/25 05:08:38;;;;;;;25.00;13.68;;;;;;;;;;5047408;28;20029;-58
2021/08/25 05:11:04;;;;;;;30.05;15.68;;;;;;;;;;5047310;28;20142;-58
2021/08/25 05:13:31;;;;;;;28.48;15.30;;;;;;;;;;5045279;28;20032;-58
2021/08/25 05:15:57;;;;;;;27.50;14.52;;;;;;;;;;5046613;28;20035;-58
2021/08/25 05:18:22;;;;;;;33.65;15.50;;;;;;;;;;5046720;28;20660;-58
2021/08/25 05:20:48;;;;;;;27.23;14.27;;;;;;;;;;5053472;28;20122;-58
2021/08/25 05:23:13;;;;;;;25.88;14.00;;;;;;;;;;5045993;28;20028;-58
2021/08/25 05:25:38;;;;;;;31.33;15.18;;;;;;;;;;5047911;28;20411;-58
2021/08/25 05:28:04;;;;;;;29.65;15.70;;;;;;;;;;5046379;28;20040;-58
2021/08/25 05:30:30;;;;;;;28.00;14.75;;;;;;;;;;5049204;28;20033;-58
2021/08/25 05:32:55;;;;;;;31.55;15.93;;;;;;;;;;5046382;28;20029;-58
2021/08/25 05:35:22;;;;;;;34.20;16.17;;;;;;;;;;5049801;28;20444;-59
2021/08/25 05:37:48;;;;;;;35.67;16.35;;;;;;;;;;5063390;28;20028;-57
2021/08/25 05:40:14;;;;;;;34.67;16.70;;;;;;;;;;5046722;28;20029;-58
2021/08/25 05:42:45;;;;;;;32.55;15.88;;;;;;;;;;5048338;28;20106;-57
2021/08/25 05:45:11;;;;;;;29.50;14.90;;;;;;;;;;5052355;28;20025;-58
2021/08/25 05:47:37;;;;;;;32.85;14.30;;;;;;;;;;5045062;28;20383;-59
2021/08/25 05:50:04;;;;;;;29.55;14.68;;;;;;;;;;5045839;28;20017;-59
2021/08/25 05:52:30;;;;;;;33.65;15.15;;;;;;;;;;5046244;28;20041;-59
2021/08/25 05:54:55;;;;;;;30.50;14.40;;;;;;;;;;5049347;28;20025;-58
2021/08/25 05:57:20;;;;;;;29.77;15.23;;;;;;;;;;5043972;28;20119;-59
2021/08/25 05:59:46;;;;;;;31.08;15.05;;;;;;;;;;5046065;28;20223;-58
2021/08/25 06:02:11;;;;;;;34.58;16.38;;;;;;;;;;5046482;28;20480;-58
2021/08/25 06:04:37;;;;;;;33.42;17.05;;;;;;;;;;5054436;28;20025;-58
2021/08/25 06:07:06;;;;;;;36.80;17.45;;;;;;;;;;5049514;28;20117;-63
2021/08/25 06:09:31;;;;;;;39.03;18.00;;;;;;;;;;5049442;28;20106;-59
2021/08/25 06:11:57;;;;;;;38.08;18.35;;;;;;;;;;5049593;28;20033;-58
2021/08/25 06:14:22;;;;;;;38.08;19.08;;;;;;;;;;5056252;28;20032;-58
2021/08/25 06:16:48;;;;;;;42.47;19.38;;;;;;;;;;5065396;28;20490;-58
2021/08/25 06:19:13;;;;;;;40.83;20.45;;;;;;;;;;5063808;28;20024;-58
2021/08/25 06:21:43;;;;;;;43.08;19.73;;;;;;;;;;5065482;28;20097;-59
2021/08/25 06:24:09;;;;;;;42.03;18.50;;;;;;;;;;5061470;28;20025;-58
2021/08/25 06:26:34;;;;;;;42.35;20.08;;;;;;;;;;5049475;28;20594;-59
2021/08/25 06:28:59;;;;;;;36.65;18.83;;;;;;;;;;5055144;28;20215;-59
2021/08/25 06:31:25;;;;;;;38.08;18.63;;;;;;;;;;5051636;28;20060;-58
2021/08/25 06:33:50;;;;;;;36.08;19.13;;;;;;;;;;5050757;28;20025;-58
2021/08/25 06:36:16;;;;;;;36.22;17.77;;;;;;;;;;5051841;28;20500;-58
2021/08/25 06:38:41;;;;;;;36.25;18.70;;;;;;;;;;5065828;28;20025;-59
2021/08/25 06:41:06;;;;;;;36.45;18.15;;;;;;;;;;5052862;28;20025;-58
2021/08/25 06:43:32;;;;;;;33.45;17.88;;;;;;;;;;5055832;28;20331;-58
2021/08/25 06:45:57;;;;;;;36.08;17.55;;;;;;;;;;5052412;28;20040;-58
2021/08/25 06:48:22;;;;;;;31.88;16.67;;;;;;;;;;5049689;28;20048;-58
2021/08/25 06:50:48;;;;;;;30.55;17.00;;;;;;;;;;5052024;28;20595;-58
2021/08/25 06:53:13;;;;;;;35.58;17.90;;;;;;;;;;5052039;28;20036;-58
2021/08/25 06:55:39;;;;;;;39.70;18.13;;;;;;;;;;5049604;28;20108;-59
2021/08/25 06:58:04;;;;;;;38.28;18.33;;;;;;;;;;5048712;28;20116;-58
2021/08/25 07:00:30;;;;;;;33.55;17.48;;;;;;;;;;5049249;28;20483;-58
2021/08/25 07:02:55;;;;;;;31.63;16.40;;;;;;;;;;5051505;28;20026;-58
2021/08/25 07:05:21;;;;;;;32.97;16.80;;;;;;;;;;5049439;28;20056;-58
2021/08/25 07:07:47;;;;;;;31.35;17.15;;;;;;;;;;5047921;28;20483;-58
2021/08/25 07:10:13;;;;;;;32.28;15.75;;;;;;;;;;5048978;28;20036;-58
2021/08/25 07:12:38;;;;;;;32.25;16.58;;;;;;;;;;5049012;28;20347;-60
2021/08/25 07:15:04;;;;;;;30.63;15.50;;;;;;;;;;5049236;28;20052;-59
2021/08/25 07:17:29;;;;;;;31.77;16.75;;;;;;;;;;5052422;28;20081;-58
2021/08/25 07:19:55;;;;;;;32.85;16.25;;;;;;;;;;5048150;28;20017;-59
2021/08/25 07:22:20;;;;;;;31.17;15.27;;;;;;;;;;5047853;28;20078;-58
2021/08/25 07:24:46;;;;;;;30.33;15.00;;;;;;;;;;5051099;28;20754;-58
2021/08/25 07:27:11;;;;;;;28.50;14.52;;;;;;;;;;5051782;28;20482;-59
2021/08/25 07:29:37;;;;;;;32.00;14.95;;;;;;;;;;5048953;28;20452;-59
2021/08/25 07:32:02;;;;;;;26.70;14.38;;;;;;;;;;5062849;28;20029;-59
2021/08/25 07:34:28;;;;;;;25.08;13.40;;;;;;;;;;5047312;28;20041;-59
2021/08/25 07:36:54;;;;;;;26.23;13.05;;;;;;;;;;5051677;28;20021;-59
2021/08/25 07:39:19;;;;;;;22.42;12.77;;;;;;;;;;5050958;28;20032;-59
2021/08/25 07:41:44;;;;;;;25.58;13.48;;;;;;;;;;5064315;28;20025;-58
2021/08/25 07:44:10;;;;;;;28.63;13.95;;;;;;;;;;5049513;28;20024;-58
2021/08/25 07:46:35;;;;;;;23.48;12.82;;;;;;;;;;5048552;28;20031;-59
2021/08/25 07:49:08;;;;;;;24.25;13.15;;;;;;;;;;5048273;28;20057;-58
2021/08/25 07:51:37;;;;;;;23.63;12.27;;;;;;;;;;5047217;28;20499;-58
2021/08/25 07:54:03;;;;;;;19.67;11.15;;;;;;;;;;5048980;28;20506;-59
2021/08/25 07:56:29;;;;;;;20.10;11.00;;;;;;;;;;5049151;28;20147;-59
2021/08/25 07:58:55;;;;;;;23.85;11.40;;;;;;;;;;5048285;28;20024;-59
2021/08/25 08:01:21;;;;;;;17.70;10.20;;;;;;;;;;5051986;28;20028;-59
2021/08/25 08:03:46;;;;;;;17.23;10.23;;;;;;;;;;5055328;28;20029;-58
2021/08/25 08:06:12;;;;;;;19.83;10.75;;;;;;;;;;5049272;28;20503;-59
2021/08/25 08:08:37;;;;;;;16.30;10.10;;;;;;;;;;5049866;28;20029;-59
2021/08/25 08:11:03;;;;;;;16.77;9.50;;;;;;;;;;5048214;28;20368;-59
2021/08/25 08:13:29;;;;;;;14.75;8.65;;;;;;;;;;5047597;28;20060;-59
2021/08/25 08:15:54;;;;;;;20.23;9.52;;;;;;;;;;5050124;28;20021;-58
2021/08/25 08:18:27;;;;;;;13.57;7.75;;;;;;;;;;5046716;28;20036;-59
2021/08/25 08:20:52;;;;;;;12.23;7.43;;;;;;;;;;5049875;28;20029;-59
2021/08/25 08:23:18;;;;;;;13.30;7.97;;;;;;;;;;5048636;28;20428;-58
2021/08/25 08:25:43;;;;;;;13.00;7.50;;;;;;;;;;5048469;28;20024;-58
2021/08/25 08:28:09;;;;;;;14.35;8.05;;;;;;;;;;5051608;28;20030;-58
2021/08/25 08:30:35;;;;;;;13.35;7.13;;;;;;;;;;5048134;28;20033;-58
2021/08/25 08:33:00;;;;;;;17.10;8.15;;;;;;;;;;5049183;28;20051;-58
2021/08/25 08:35:26;;;;;;;18.45;8.98;;;;;;;;;;5049034;28;20040;-58
2021/08/25 08:37:51;;;;;;;13.27;7.13;;;;;;;;;;5048940;28;20040;-58
2021/08/25 08:40:17;;;;;;;15.82;7.85;;;;;;;;;;5050468;28;20112;-58
2021/08/25 08:42:42;;;;;;;13.30;6.68;;;;;;;;;;5047370;28;20025;-58
2021/08/25 08:45:10;;;;;;;10.85;7.00;;;;;;;;;;5051885;28;20440;-58
2021/08/25 08:47:36;;;;;;;16.77;7.40;;;;;;;;;;5046216;28;20033;-58
2021/08/25 08:50:02;;;;;;;12.65;7.65;;;;;;;;;;5046331;28;20036;-58
2021/08/25 08:52:28;;;;;;;15.05;7.22;;;;;;;;;;5045559;28;20025;-58
2021/08/25 08:54:55;;;;;;;12.05;6.80;;;;;;;;;;5046993;28;20040;-58
2021/08/25 08:57:21;;;;;;;13.63;6.82;;;;;;;;;;5051107;28;20024;-58
2021/08/25 08:59:47;;;;;;;15.13;7.95;;;;;;;;;;5047051;28;20098;-58
2021/08/25 09:02:14;;;;;;;15.23;7.43;;;;;;;;;;5046757;28;20067;-58
2021/08/25 09:04:46;;;;;;;12.95;7.43;;;;;;;;;;5048173;28;20159;-58
2021/08/25 09:07:19;;;;;;;12.10;7.18;;;;;;;;;;5048883;28;20318;-58
2021/08/25 09:09:56;;;;;;;12.35;6.38;;;;;;;;;;5045611;28;20032;-59
2021/08/25 09:12:22;;;;;;;11.50;7.20;;;;;;;;;;5046022;28;20488;-58
2021/08/25 09:14:48;;;;;;;14.00;6.97;;;;;;;;;;5047695;28;20028;-58
2021/08/25 09:17:28;;;;;;;11.80;6.95;;;;;;;;;;5046017;28;20027;-58
2021/08/25 09:20:08;;;;;;;12.35;6.35;;;;;;;;;;5046029;28;20087;-58
2021/08/25 09:22:34;;;;;;;15.63;7.07;;;;;;;;;;5047187;28;20095;-59
2021/08/25 09:24:59;;;;;;;11.68;6.25;;;;;;;;;;5046359;28;20116;-57
2021/08/25 09:27:25;;;;;;;13.20;7.18;;;;;;;;;;5047724;28;20602;-57
2021/08/25 09:29:56;;;;;;;11.27;6.38;;;;;;;;;;5047595;28;20028;-58
2021/08/25 09:32:24;;;;;;;14.73;6.63;;;;;;;;;;5048734;28;20467;-59
2021/08/25 09:34:58;;;;;;;9.70;6.38;;;;;;;;;;5049108;28;20491;-58
2021/08/25 09:37:24;;;;;;;12.77;6.88;;;;;;;;;;5050170;28;20036;-58
2021/08/25 09:39:55;;;;;;;15.98;6.80;;;;;;;;;;5053883;28;20028;-58
2021/08/25 09:42:22;;;;;;;12.82;6.03;;;;;;;;;;5050488;28;20442;-58
2021/08/25 09:45:06;;;;;;;13.43;7.05;;;;;;;;;;5056007;28;20082;-59
2021/08/25 09:47:52;;;;;;;13.48;6.70;;;;;;;;;;5050256;28;20041;-58
2021/08/25 09:50:20;;;;;;;13.63;6.70;;;;;;;;;;5049133;28;20025;-59
2021/08/25 09:52:46;;;;;;;12.73;6.88;;;;;;;;;;5050789;28;20074;-59
2021/08/25 09:55:12;;;;;;;10.98;6.93;;;;;;;;;;5055790;28;20025;-59
2021/08/25 09:57:43;;;;;;;11.38;6.47;;;;;;;;;;5050913;28;20368;-59
2021/08/25 10:00:11;;;;;;;12.00;7.03;;;;;;;;;;5050230;28;20029;-59
2021/08/25 10:02:38;;;;;;;14.55;6.78;;;;;;;;;;5049213;28;20569;-58
2021/08/25 10:05:04;;;;;;;18.55;6.78;;;;;;;;;;5067292;28;20051;-59
2021/08/25 10:07:30;;;;;;;12.30;6.25;;;;;;;;;;5050854;28;20036;-58
2021/08/25 10:09:55;;;;;;;10.15;6.45;;;;;;;;;;5050855;28;20033;-59
2021/08/25 10:12:21;;;;;;;11.93;7.47;;;;;;;;;;5051131;28;20029;-59
2021/08/25 10:14:46;;;;;;;12.90;7.05;;;;;;;;;;5049874;28;20400;-58
2021/08/25 10:17:41;;;;;;;12.93;6.68;;;;;;;;;;5049873;28;20028;-59
2021/08/25 10:20:25;;;;;;;11.50;6.45;;;;;;;;;;5065961;28;20252;-59
2021/08/25 10:22:52;;;;;;;11.10;6.68;;;;;;;;;;5050246;28;20163;-59
2021/08/25 10:25:17;;;;;;;11.00;6.13;;;;;;;;;;5050059;28;20028;-59
2021/08/25 10:28:09;;;;;;;12.90;6.80;;;;;;;;;;5055478;28;20123;-59
2021/08/25 10:30:46;;;;;;;12.45;7.10;;;;;;;;;;5054796;28;20483;-59
2021/08/25 10:33:15;;;;;;;10.43;6.35;;;;;;;;;;5050111;28;20569;-59
2021/08/25 10:35:43;;;;;;;12.50;6.82;;;;;;;;;;5049854;28;20039;-59
2021/08/25 10:38:29;;;;;;;13.60;7.88;;;;;;;;;;5051279;28;20074;-59
2021/08/25 10:41:15;;;;;;;15.07;7.10;;;;;;;;;;5047549;28;20033;-59
2021/08/25 10:43:43;;;;;;;11.77;6.90;;;;;;;;;;5050082;28;20025;-59
2021/08/25 10:46:13;;;;;;;13.48;6.80;;;;;;;;;;5052202;28;20032;-59
2021/08/25 10:48:45;;;;;;;12.60;6.38;;;;;;;;;;5050232;28;20035;-59
2021/08/25 10:51:30;;;;;;;11.73;7.03;;;;;;;;;;5047860;28;20116;-59
2021/08/25 10:53:57;;;;;;;15.52;6.88;;;;;;;;;;5051213;28;20039;-59
2021/08/25 10:56:45;;;;;;;10.27;6.22;;;;;;;;;;5046707;28;20039;-59
2021/08/25 10:59:13;;;;;;;12.25;6.13;;;;;;;;;;5051904;28;20021;-59
2021/08/25 11:01:49;;;;;;;9.77;5.97;;;;;;;;;;5051107;28;20033;-59
2021/08/25 11:04:19;;;;;;;10.73;6.63;;;;;;;;;;5067222;28;20090;-59
2021/08/25 11:06:56;;;;;;;11.40;6.00;;;;;;;;;;5050802;28;20039;-59
2021/08/25 11:09:24;;;;;;;10.77;7.00;;;;;;;;;;5048480;28;20113;-59
2021/08/25 11:12:14;;;;;;;12.70;6.57;;;;;;;;;;5049517;28;20029;-59
2021/08/25 11:14:46;;;;;;;8.95;6.07;;;;;;;;;;5049221;28;20086;-59
2021/08/25 11:17:17;;;;;;;12.32;6.57;;;;;;;;;;5046654;28;20093;-59
2021/08/25 11:19:54;;;;;;;10.27;6.47;;;;;;;;;;5050572;28;20029;-59
2021/08/25 11:22:25;;;;;;;10.80;6.25;;;;;;;;;;5048192;28;20082;-59
2021/08/25 11:24:55;;;;;;;10.40;6.60;;;;;;;;;;5051778;28;20051;-58
2021/08/25 11:27:30;;;;;;;10.13;6.28;;;;;;;;;;5048934;28;20082;-58
2021/08/25 11:30:08;;;;;;;11.45;7.03;;;;;;;;;;5049909;28;20056;-58
2021/08/25 11:33:00;;;;;;;16.48;6.20;;;;;;;;;;5053976;28;20487;-59
2021/08/25 11:35:37;;;;;;;12.90;6.25;;;;;;;;;;5050788;28;20491;-58
2021/08/25 11:38:15;;;;;;;11.43;6.32;;;;;;;;;;5066464;28;20020;-58
2021/08/25 11:40:43;;;;;;;11.33;6.30;;;;;;;;;;5049535;28;20033;-58
2021/08/25 11:43:12;;;;;;;9.77;6.10;;;;;;;;;;5053527;28;20369;-59
2021/08/25 11:45:39;;;;;;;9.77;5.82;;;;;;;;;;5049634;28;20024;-59
2021/08/25 11:48:06;;;;;;;16.55;6.40;;;;;;;;;;5053670;28;20021;-59
2021/08/25 11:50:36;;;;;;;10.65;6.32;;;;;;;;;;5048987;28;20036;-59
2021/08/25 11:53:02;;;;;;;8.75;5.90;;;;;;;;;;5048225;28;20436;-59
2021/08/25 11:55:28;;;;;;;9.43;6.40;;;;;;;;;;5049500;28;20116;-59
2021/08/25 11:57:57;;;;;;;13.75;6.75;;;;;;;;;;5063988;28;20021;-59
2021/08/25 12:00:36;;;;;;;10.18;6.18;;;;;;;;;;5047653;28;20021;-59
2021/08/25 12:03:03;;;;;;;10.95;6.43;;;;;;;;;;5047112;28;20028;-59
2021/08/25 12:05:34;;;;;;;11.90;6.50;;;;;;;;;;5047934;28;20071;-59
2021/08/25 12:08:04;;;;;;;10.50;6.70;;;;;;;;;;5048474;28;20053;-59
2021/08/25 12:10:31;;;;;;;12.15;6.55;;;;;;;;;;5048325;28;20091;-59
2021/08/25 12:12:56;;;;;;;10.75;6.55;;;;;;;;;;5048123;28;20120;-59
2021/08/25 12:15:41;;;;;;;10.32;6.13;;;;;;;;;;5047621;28;20082;-59
2021/08/25 12:18:06;;;;;;;9.85;5.85;;;;;;;;;;5049004;28;20241;-59
2021/08/25 12:20:39;;;;;;;11.90;6.20;;;;;;;;;;5050886;28;20028;-59
2021/08/25 12:23:06;;;;;;;9.45;6.10;;;;;;;;;;5048144;28;20025;-59
2021/08/25 12:25:41;;;;;;;9.73;6.53;;;;;;;;;;5054240;28;20029;-60
2021/08/25 12:28:07;;;;;;;10.02;6.50;;;;;;;;;;5049753;28;20021;-60
2021/08/25 12:30:40;;;;;;;11.90;6.85;;;;;;;;;;5051329;28;20043;-59
2021/08/25 12:33:10;;;;;;;13.57;7.18;;;;;;;;;;5047727;28;20111;-59
2021/08/25 12:35:37;;;;;;;10.10;6.53;;;;;;;;;;5048131;28;20480;-58
2021/08/25 12:38:04;;;;;;;11.90;6.25;;;;;;;;;;5051428;28;20028;-59
2021/08/25 12:40:30;;;;;;;10.07;6.45;;;;;;;;;;5051287;28;20090;-59
2021/08/25 12:42:57;;;;;;;9.60;6.18;;;;;;;;;;5061036;28;20029;-60
2021/08/25 12:45:23;;;;;;;10.30;5.80;;;;;;;;;;5047831;28;20483;-60
2021/08/25 12:47:53;;;;;;;13.48;6.65;;;;;;;;;;5046081;28;20033;-60
2021/08/25 12:50:22;;;;;;;10.18;6.55;;;;;;;;;;5065132;28;20463;-60
2021/08/25 12:52:48;;;;;;;13.52;6.07;;;;;;;;;;5047021;28;20032;-60
2021/08/25 12:55:14;;;;;;;9.32;5.93;;;;;;;;;;5048762;28;20033;-60
2021/08/25 12:57:40;;;;;;;10.80;6.18;;;;;;;;;;5048995;28;20398;-60
2021/08/25 13:00:08;;;;;;;9.98;6.18;;;;;;;;;;5046352;28;20020;-60
2021/08/25 13:02:34;;;;;;;12.32;6.72;;;;;;;;;;5046890;28;20036;-60
2021/08/25 13:05:00;;;;;;;10.40;5.97;;;;;;;;;;5047891;28;20511;-61
2021/08/25 13:07:25;;;;;;;9.80;6.00;;;;;;;;;;5047372;28;20032;-60
2021/08/25 13:09:50;;;;;;;10.93;6.43;;;;;;;;;;5048782;28;20025;-60
2021/08/25 13:12:17;;;;;;;11.27;7.25;;;;;;;;;;5027517;28;20531;-60
2021/08/25 13:14:42;;;;;;;11.27;5.95;;;;;;;;;;5047498;28;20032;-60
2021/08/25 13:17:07;;;;;;;11.45;6.47;;;;;;;;;;5047006;28;21217;-61
2021/08/25 13:19:33;;;;;;;10.50;6.22;;;;;;;;;;5048017;28;20048;-60
2021/08/25 13:21:58;;;;;;;9.95;6.00;;;;;;;;;;5046412;28;20499;-58
2021/08/25 13:24:24;;;;;;;9.65;6.35;;;;;;;;;;5047859;28;20411;-59
2021/08/25 13:26:49;;;;;;;9.13;6.43;;;;;;;;;;5051815;28;20372;-62
2021/08/25 13:29:15;;;;;;;11.45;7.13;;;;;;;;;;5048100;28;20074;-59
2021/08/25 13:31:40;;;;;;;8.90;5.82;;;;;;;;;;5048566;28;20502;-60
2021/08/25 13:34:06;;;;;;;10.77;6.57;;;;;;;;;;5046777;28;20027;-60
2021/08/25 13:36:31;;;;;;;13.15;6.47;;;;;;;;;;5048331;28;20106;-59
2021/08/25 13:38:56;;;;;;;14.75;6.85;;;;;;;;;;5047268;28;20025;-61
2021/08/25 13:41:22;;;;;;;12.13;6.32;;;;;;;;;;5052174;28;20406;-61
2021/08/25 13:43:47;;;;;;;9.82;6.10;;;;;;;;;;5062682;28;20460;-61
2021/08/25 13:46:13;;;;;;;9.18;5.68;;;;;;;;;;5052321;28;20078;-61
2021/08/25 13:48:38;;;;;;;11.02;5.93;;;;;;;;;;5047499;28;20063;-60
2021/08/25 13:51:03;;;;;;;10.07;6.60;;;;;;;;;;5064760;28;20024;-60
2021/08/25 13:53:29;;;;;;;8.93;6.28;;;;;;;;;;5060427;28;20037;-60
2021/08/25 13:55:54;;;;;;;8.85;6.10;;;;;;;;;;5046207;28;20031;-60
2021/08/25 13:58:20;;;;;;;8.88;6.30;;;;;;;;;;5045957;28;21105;-60
2021/08/25 14:00:46;;;;;;;12.45;7.20;;;;;;;;;;5047159;28;20024;-60
2021/08/25 14:03:12;;;;;;;11.23;6.40;;;;;;;;;;5045409;28;20036;-60
2021/08/25 14:05:37;;;;;;;11.10;6.20;;;;;;;;;;5046657;28;20021;-60
2021/08/25 14:08:03;;;;;;;11.65;6.47;;;;;;;;;;5060494;28;20025;-60
2021/08/25 14:10:31;;;;;;;9.52;6.20;;;;;;;;;;5048929;28;20075;-60
2021/08/25 14:12:58;;;;;;;10.73;6.47;;;;;;;;;;5046751;28;20477;-60
2021/08/25 14:15:23;;;;;;;9.70;6.57;;;;;;;;;;5047565;28;20040;-60
2021/08/25 14:17:49;;;;;;;10.05;6.03;;;;;;;;;;5045679;28;20040;-60
2021/08/25 14:20:14;;;;;;;11.30;6.90;;;;;;;;;;5051087;28;20013;-60
2021/08/25 14:22:41;;;;;;;11.13;7.07;;;;;;;;;;5048278;28;20119;-60
2021/08/25 14:25:07;;;;;;;12.20;7.13;;;;;;;;;;5049518;28;20518;-60